sensor_id;sensor_type;location;lat;lon;timestamp;P1;durP1;ratioP1;P2;durP2;ratioP2
73452;SDS011;61687;56.232;43.854;2023-05-07T00:02:01;12.20;;;7.05;;
73452;SDS011;61687;56.232;43.854;2023-05-07T00:04:29;9.75;;;6.05;;
73452;SDS011;61687;56.232;43.854;2023-05-07T00:07:01;10.57;;;6.27;;
73452;SDS011;61687;56.232;43.854;2023-05-07T00:09:27;13.50;;;5.45;;
73452;SDS011;61687;56.232;43.854;2023-05-07T00:11:53;10.65;;;5.57;;
73452;SDS011;61687;56.232;43.854;2023-05-07T00:14:19;12.73;;;5.25;;
73452;SDS011;61687;56.232;43.854;2023-05-07T00:16:46;11.98;;;5.82;;
73452;SDS011;61687;56.232;43.854;2023-05-07T00:19:12;9.20;;;5.00;;
73452;SDS011;61687;56.232;43.854;2023-05-07T00:21:38;9.40;;;4.65;;
73452;SDS011;61687;56.232;43.854;2023-05-07T00:24:04;9.85;;;5.20;;
73452;SDS011;61687;56.232;43.854;2023-05-07T00:26:30;8.63;;;5.22;;
73452;SDS011;61687;56.232;43.854;2023-05-07T00:28:56;9.75;;;5.30;;
73452;SDS011;61687;56.232;43.854;2023-05-07T00:31:22;8.15;;;5.20;;
73452;SDS011;61687;56.232;43.854;2023-05-07T00:33:49;8.80;;;4.47;;
73452;SDS011;61687;56.232;43.854;2023-05-07T00:36:15;9.10;;;5.20;;
73452;SDS011;61687;56.232;43.854;2023-05-07T00:38:40;9.43;;;5.10;;
73452;SDS011;61687;56.232;43.854;2023-05-07T00:41:06;8.27;;;5.13;;
73452;SDS011;61687;56.232;43.854;2023-05-07T00:43:33;7.95;;;4.63;;
73452;SDS011;61687;56.232;43.854;2023-05-07T00:45:59;8.30;;;4.70;;
73452;SDS011;61687;56.232;43.854;2023-05-07T00:48:25;8.27;;;4.90;;
73452;SDS011;61687;56.232;43.854;2023-05-07T00:50:51;9.85;;;4.90;;
73452;SDS011;61687;56.232;43.854;2023-05-07T00:53:17;8.90;;;4.63;;
73452;SDS011;61687;56.232;43.854;2023-05-07T00:55:44;7.93;;;4.50;;
73452;SDS011;61687;56.232;43.854;2023-05-07T00:58:10;8.48;;;5.03;;
73452;SDS011;61687;56.232;43.854;2023-05-07T01:00:36;10.82;;;4.57;;
73452;SDS011;61687;56.232;43.854;2023-05-07T01:03:02;9.00;;;5.20;;
73452;SDS011;61687;56.232;43.854;2023-05-07T01:05:28;10.77;;;5.10;;
73452;SDS011;61687;56.232;43.854;2023-05-07T01:07:56;10.80;;;5.75;;
73452;SDS011;61687;56.232;43.854;2023-05-07T01:10:23;10.43;;;4.55;;
73452;SDS011;61687;56.232;43.854;2023-05-07T01:12:50;12.18;;;5.30;;
73452;SDS011;61687;56.232;43.854;2023-05-07T01:15:17;16.20;;;5.90;;
73452;SDS011;61687;56.232;43.854;2023-05-07T01:17:44;10.20;;;4.45;;
73452;SDS011;61687;56.232;43.854;2023-05-07T01:20:19;11.48;;;4.45;;
73452;SDS011;61687;56.232;43.854;2023-05-07T01:22:47;11.80;;;5.07;;
73452;SDS011;61687;56.232;43.854;2023-05-07T01:25:14;9.40;;;5.38;;
73452;SDS011;61687;56.232;43.854;2023-05-07T01:27:45;10.85;;;5.57;;
73452;SDS011;61687;56.232;43.854;2023-05-07T01:30:11;9.80;;;4.88;;
73452;SDS011;61687;56.232;43.854;2023-05-07T01:32:48;9.02;;;4.25;;
73452;SDS011;61687;56.232;43.854;2023-05-07T01:35:21;9.52;;;5.43;;
73452;SDS011;61687;56.232;43.854;2023-05-07T01:37:51;9.48;;;5.22;;
73452;SDS011;61687;56.232;43.854;2023-05-07T01:40:18;9.98;;;5.50;;
73452;SDS011;61687;56.232;43.854;2023-05-07T01:42:46;8.88;;;4.90;;
73452;SDS011;61687;56.232;43.854;2023-05-07T01:45:14;9.10;;;4.57;;
73452;SDS011;61687;56.232;43.854;2023-05-07T01:47:40;7.47;;;5.20;;
73452;SDS011;61687;56.232;43.854;2023-05-07T01:50:07;8.05;;;4.70;;
73452;SDS011;61687;56.232;43.854;2023-05-07T01:52:39;9.43;;;4.82;;
73452;SDS011;61687;56.232;43.854;2023-05-07T01:55:05;9.52;;;4.50;;
73452;SDS011;61687;56.232;43.854;2023-05-07T01:57:32;7.97;;;4.90;;
73452;SDS011;61687;56.232;43.854;2023-05-07T01:59:58;7.68;;;4.90;;
73452;SDS011;61687;56.232;43.854;2023-05-07T02:02:24;7.80;;;3.97;;
73452;SDS011;61687;56.232;43.854;2023-05-07T02:04:52;11.00;;;5.38;;
73452;SDS011;61687;56.232;43.854;2023-05-07T02:07:18;8.73;;;5.00;;
73452;SDS011;61687;56.232;43.854;2023-05-07T02:09:44;7.30;;;4.25;;
73452;SDS011;61687;56.232;43.854;2023-05-07T02:12:11;9.57;;;4.63;;
73452;SDS011;61687;56.232;43.854;2023-05-07T02:14:37;7.93;;;4.88;;
73452;SDS011;61687;56.232;43.854;2023-05-07T02:17:03;7.40;;;4.43;;
73452;SDS011;61687;56.232;43.854;2023-05-07T02:19:29;6.78;;;4.47;;
73452;SDS011;61687;56.232;43.854;2023-05-07T02:21:55;8.45;;;4.53;;
73452;SDS011;61687;56.232;43.854;2023-05-07T02:24:21;9.98;;;5.15;;
73452;SDS011;61687;56.232;43.854;2023-05-07T02:26:47;9.77;;;4.78;;
73452;SDS011;61687;56.232;43.854;2023-05-07T02:29:13;6.60;;;4.37;;
73452;SDS011;61687;56.232;43.854;2023-05-07T02:31:39;8.15;;;4.45;;
73452;SDS011;61687;56.232;43.854;2023-05-07T02:34:05;7.55;;;4.43;;
73452;SDS011;61687;56.232;43.854;2023-05-07T02:36:31;7.85;;;4.82;;
73452;SDS011;61687;56.232;43.854;2023-05-07T02:39:05;9.35;;;4.55;;
73452;SDS011;61687;56.232;43.854;2023-05-07T02:41:31;8.97;;;4.67;;
73452;SDS011;61687;56.232;43.854;2023-05-07T02:43:58;7.30;;;4.63;;
73452;SDS011;61687;56.232;43.854;2023-05-07T02:46:24;7.22;;;4.72;;
73452;SDS011;61687;56.232;43.854;2023-05-07T02:48:58;8.05;;;4.63;;
73452;SDS011;61687;56.232;43.854;2023-05-07T02:51:25;7.47;;;4.15;;
73452;SDS011;61687;56.232;43.854;2023-05-07T02:53:52;8.53;;;4.77;;
73452;SDS011;61687;56.232;43.854;2023-05-07T02:56:18;7.45;;;4.55;;
73452;SDS011;61687;56.232;43.854;2023-05-07T02:58:44;7.63;;;4.22;;
73452;SDS011;61687;56.232;43.854;2023-05-07T03:01:11;7.78;;;3.85;;
73452;SDS011;61687;56.232;43.854;2023-05-07T03:03:55;9.02;;;4.25;;
73452;SDS011;61687;56.232;43.854;2023-05-07T03:06:21;9.23;;;4.73;;
73452;SDS011;61687;56.232;43.854;2023-05-07T03:08:48;9.52;;;4.75;;
73452;SDS011;61687;56.232;43.854;2023-05-07T03:11:14;8.82;;;4.47;;
73452;SDS011;61687;56.232;43.854;2023-05-07T03:13:40;10.88;;;5.28;;
73452;SDS011;61687;56.232;43.854;2023-05-07T03:16:06;7.95;;;5.20;;
73452;SDS011;61687;56.232;43.854;2023-05-07T03:18:32;9.33;;;4.80;;
73452;SDS011;61687;56.232;43.854;2023-05-07T03:20:58;12.48;;;5.00;;
73452;SDS011;61687;56.232;43.854;2023-05-07T03:23:24;8.57;;;4.60;;
73452;SDS011;61687;56.232;43.854;2023-05-07T03:25:50;7.20;;;4.30;;
73452;SDS011;61687;56.232;43.854;2023-05-07T03:28:16;9.27;;;4.60;;
73452;SDS011;61687;56.232;43.854;2023-05-07T03:30:49;7.80;;;4.40;;
73452;SDS011;61687;56.232;43.854;2023-05-07T03:33:15;11.30;;;4.82;;
73452;SDS011;61687;56.232;43.854;2023-05-07T03:35:41;7.07;;;4.50;;
73452;SDS011;61687;56.232;43.854;2023-05-07T03:38:07;11.10;;;5.20;;
73452;SDS011;61687;56.232;43.854;2023-05-07T03:40:35;8.95;;;5.20;;
73452;SDS011;61687;56.232;43.854;2023-05-07T03:43:03;8.05;;;4.30;;
73452;SDS011;61687;56.232;43.854;2023-05-07T03:45:31;10.52;;;4.63;;
73452;SDS011;61687;56.232;43.854;2023-05-07T03:48:08;7.50;;;4.75;;
73452;SDS011;61687;56.232;43.854;2023-05-07T03:50:34;7.78;;;4.88;;
73452;SDS011;61687;56.232;43.854;2023-05-07T03:53:01;12.25;;;4.88;;
73452;SDS011;61687;56.232;43.854;2023-05-07T03:55:29;8.73;;;4.68;;
73452;SDS011;61687;56.232;43.854;2023-05-07T03:57:58;15.05;;;4.82;;
73452;SDS011;61687;56.232;43.854;2023-05-07T04:00:26;6.03;;;3.83;;
73452;SDS011;61687;56.232;43.854;2023-05-07T04:02:52;7.73;;;4.57;;
73452;SDS011;61687;56.232;43.854;2023-05-07T04:05:24;9.70;;;5.13;;
73452;SDS011;61687;56.232;43.854;2023-05-07T04:07:55;8.63;;;3.78;;
73452;SDS011;61687;56.232;43.854;2023-05-07T04:10:29;8.63;;;4.78;;
73452;SDS011;61687;56.232;43.854;2023-05-07T04:12:56;7.07;;;4.22;;
73452;SDS011;61687;56.232;43.854;2023-05-07T04:15:24;7.80;;;4.63;;
73452;SDS011;61687;56.232;43.854;2023-05-07T04:17:50;9.50;;;4.40;;
73452;SDS011;61687;56.232;43.854;2023-05-07T04:20:19;7.22;;;5.13;;
73452;SDS011;61687;56.232;43.854;2023-05-07T04:22:51;7.80;;;4.72;;
73452;SDS011;61687;56.232;43.854;2023-05-07T04:25:17;9.13;;;4.30;;
73452;SDS011;61687;56.232;43.854;2023-05-07T04:27:43;8.73;;;5.28;;
73452;SDS011;61687;56.232;43.854;2023-05-07T04:30:10;8.48;;;4.20;;
73452;SDS011;61687;56.232;43.854;2023-05-07T04:32:38;5.93;;;3.55;;
73452;SDS011;61687;56.232;43.854;2023-05-07T04:35:05;5.47;;;3.75;;
73452;SDS011;61687;56.232;43.854;2023-05-07T04:37:33;6.25;;;4.50;;
73452;SDS011;61687;56.232;43.854;2023-05-07T04:39:59;9.65;;;4.43;;
73452;SDS011;61687;56.232;43.854;2023-05-07T04:42:30;8.45;;;4.35;;
73452;SDS011;61687;56.232;43.854;2023-05-07T04:44:57;9.32;;;3.72;;
73452;SDS011;61687;56.232;43.854;2023-05-07T04:47:24;6.18;;;3.47;;
73452;SDS011;61687;56.232;43.854;2023-05-07T04:49:50;6.18;;;4.05;;
73452;SDS011;61687;56.232;43.854;2023-05-07T04:52:16;10.15;;;4.07;;
73452;SDS011;61687;56.232;43.854;2023-05-07T04:54:43;9.23;;;3.83;;
73452;SDS011;61687;56.232;43.854;2023-05-07T04:57:09;5.47;;;3.30;;
73452;SDS011;61687;56.232;43.854;2023-05-07T04:59:35;7.38;;;3.85;;
73452;SDS011;61687;56.232;43.854;2023-05-07T05:02:01;6.88;;;4.20;;
73452;SDS011;61687;56.232;43.854;2023-05-07T05:04:30;5.70;;;3.65;;
73452;SDS011;61687;56.232;43.854;2023-05-07T05:06:56;10.77;;;4.22;;
73452;SDS011;61687;56.232;43.854;2023-05-07T05:09:22;7.90;;;3.65;;
73452;SDS011;61687;56.232;43.854;2023-05-07T05:11:48;7.68;;;3.55;;
73452;SDS011;61687;56.232;43.854;2023-05-07T05:14:14;5.00;;;3.47;;
73452;SDS011;61687;56.232;43.854;2023-05-07T05:16:42;6.03;;;3.70;;
73452;SDS011;61687;56.232;43.854;2023-05-07T05:19:08;13.30;;;3.38;;
73452;SDS011;61687;56.232;43.854;2023-05-07T05:21:37;8.48;;;3.70;;
73452;SDS011;61687;56.232;43.854;2023-05-07T05:24:06;6.32;;;3.30;;
73452;SDS011;61687;56.232;43.854;2023-05-07T05:26:33;8.43;;;4.28;;
73452;SDS011;61687;56.232;43.854;2023-05-07T05:28:59;6.00;;;3.85;;
73452;SDS011;61687;56.232;43.854;2023-05-07T05:31:27;7.22;;;4.18;;
73452;SDS011;61687;56.232;43.854;2023-05-07T05:33:54;8.00;;;3.25;;
73452;SDS011;61687;56.232;43.854;2023-05-07T05:36:20;5.45;;;4.10;;
73452;SDS011;61687;56.232;43.854;2023-05-07T05:38:47;7.78;;;3.80;;
73452;SDS011;61687;56.232;43.854;2023-05-07T05:41:13;5.65;;;3.65;;
73452;SDS011;61687;56.232;43.854;2023-05-07T05:43:39;10.07;;;3.78;;
73452;SDS011;61687;56.232;43.854;2023-05-07T05:46:05;6.25;;;3.20;;
73452;SDS011;61687;56.232;43.854;2023-05-07T05:48:32;7.10;;;3.72;;
73452;SDS011;61687;56.232;43.854;2023-05-07T05:51:00;7.72;;;3.28;;
73452;SDS011;61687;56.232;43.854;2023-05-07T05:53:26;7.88;;;3.75;;
73452;SDS011;61687;56.232;43.854;2023-05-07T05:55:53;8.53;;;3.10;;
73452;SDS011;61687;56.232;43.854;2023-05-07T05:58:19;10.50;;;4.55;;
73452;SDS011;61687;56.232;43.854;2023-05-07T06:00:51;7.53;;;3.95;;
73452;SDS011;61687;56.232;43.854;2023-05-07T06:03:21;9.25;;;3.03;;
73452;SDS011;61687;56.232;43.854;2023-05-07T06:05:47;6.85;;;3.70;;
73452;SDS011;61687;56.232;43.854;2023-05-07T06:08:13;7.23;;;3.63;;
73452;SDS011;61687;56.232;43.854;2023-05-07T06:10:39;6.22;;;3.78;;
73452;SDS011;61687;56.232;43.854;2023-05-07T06:13:07;5.63;;;3.33;;
73452;SDS011;61687;56.232;43.854;2023-05-07T06:15:35;4.00;;;3.03;;
73452;SDS011;61687;56.232;43.854;2023-05-07T06:18:06;7.35;;;3.30;;
73452;SDS011;61687;56.232;43.854;2023-05-07T06:20:32;7.17;;;3.17;;
73452;SDS011;61687;56.232;43.854;2023-05-07T06:23:01;6.85;;;4.00;;
73452;SDS011;61687;56.232;43.854;2023-05-07T06:25:28;7.38;;;3.47;;
73452;SDS011;61687;56.232;43.854;2023-05-07T06:27:54;5.03;;;3.42;;
73452;SDS011;61687;56.232;43.854;2023-05-07T06:30:20;5.37;;;3.70;;
73452;SDS011;61687;56.232;43.854;2023-05-07T06:32:46;8.90;;;3.60;;
73452;SDS011;61687;56.232;43.854;2023-05-07T06:35:13;8.85;;;3.25;;
73452;SDS011;61687;56.232;43.854;2023-05-07T06:37:40;6.78;;;2.85;;
73452;SDS011;61687;56.232;43.854;2023-05-07T06:40:13;6.97;;;2.67;;
73452;SDS011;61687;56.232;43.854;2023-05-07T06:42:39;5.77;;;3.07;;
73452;SDS011;61687;56.232;43.854;2023-05-07T06:45:27;6.72;;;3.92;;
73452;SDS011;61687;56.232;43.854;2023-05-07T06:47:54;5.45;;;3.15;;
73452;SDS011;61687;56.232;43.854;2023-05-07T06:50:22;4.20;;;2.90;;
73452;SDS011;61687;56.232;43.854;2023-05-07T06:52:48;5.97;;;2.85;;
73452;SDS011;61687;56.232;43.854;2023-05-07T06:55:14;4.40;;;3.27;;
73452;SDS011;61687;56.232;43.854;2023-05-07T06:57:40;7.10;;;3.60;;
73452;SDS011;61687;56.232;43.854;2023-05-07T07:00:06;20.60;;;4.47;;
73452;SDS011;61687;56.232;43.854;2023-05-07T07:02:42;5.30;;;2.65;;
73452;SDS011;61687;56.232;43.854;2023-05-07T07:05:09;4.27;;;2.83;;
73452;SDS011;61687;56.232;43.854;2023-05-07T07:07:36;4.22;;;2.67;;
73452;SDS011;61687;56.232;43.854;2023-05-07T07:10:02;7.40;;;3.58;;
73452;SDS011;61687;56.232;43.854;2023-05-07T07:12:31;4.88;;;3.35;;
73452;SDS011;61687;56.232;43.854;2023-05-07T07:14:56;5.50;;;3.20;;
73452;SDS011;61687;56.232;43.854;2023-05-07T07:17:22;4.47;;;2.33;;
73452;SDS011;61687;56.232;43.854;2023-05-07T07:19:49;6.03;;;2.97;;
73452;SDS011;61687;56.232;43.854;2023-05-07T07:22:15;4.07;;;2.63;;
73452;SDS011;61687;56.232;43.854;2023-05-07T07:24:41;4.15;;;2.80;;
73452;SDS011;61687;56.232;43.854;2023-05-07T07:27:09;5.50;;;3.03;;
73452;SDS011;61687;56.232;43.854;2023-05-07T07:29:35;4.93;;;3.35;;
73452;SDS011;61687;56.232;43.854;2023-05-07T07:32:02;5.50;;;2.80;;
73452;SDS011;61687;56.232;43.854;2023-05-07T07:34:28;6.15;;;3.42;;
73452;SDS011;61687;56.232;43.854;2023-05-07T07:36:55;4.00;;;2.75;;
73452;SDS011;61687;56.232;43.854;2023-05-07T07:39:22;6.10;;;2.33;;
73452;SDS011;61687;56.232;43.854;2023-05-07T07:41:51;4.68;;;2.80;;
73452;SDS011;61687;56.232;43.854;2023-05-07T07:44:20;7.00;;;3.60;;
73452;SDS011;61687;56.232;43.854;2023-05-07T07:46:51;5.18;;;3.40;;
73452;SDS011;61687;56.232;43.854;2023-05-07T07:49:18;4.97;;;2.70;;
73452;SDS011;61687;56.232;43.854;2023-05-07T07:51:44;4.33;;;3.53;;
73452;SDS011;61687;56.232;43.854;2023-05-07T07:54:11;5.18;;;3.85;;
73452;SDS011;61687;56.232;43.854;2023-05-07T07:56:37;6.65;;;3.92;;
73452;SDS011;61687;56.232;43.854;2023-05-07T07:59:05;6.82;;;2.88;;
73452;SDS011;61687;56.232;43.854;2023-05-07T08:01:33;6.95;;;2.67;;
73452;SDS011;61687;56.232;43.854;2023-05-07T08:03:59;5.83;;;3.10;;
73452;SDS011;61687;56.232;43.854;2023-05-07T08:06:26;6.35;;;3.20;;
73452;SDS011;61687;56.232;43.854;2023-05-07T08:08:53;4.60;;;2.83;;
73452;SDS011;61687;56.232;43.854;2023-05-07T08:11:19;9.48;;;3.72;;
73452;SDS011;61687;56.232;43.854;2023-05-07T08:13:45;4.43;;;2.97;;
73452;SDS011;61687;56.232;43.854;2023-05-07T08:16:12;4.63;;;2.80;;
73452;SDS011;61687;56.232;43.854;2023-05-07T08:18:39;5.30;;;3.45;;
73452;SDS011;61687;56.232;43.854;2023-05-07T08:21:05;5.85;;;3.47;;
73452;SDS011;61687;56.232;43.854;2023-05-07T08:23:31;6.90;;;3.47;;
73452;SDS011;61687;56.232;43.854;2023-05-07T08:26:00;5.40;;;3.07;;
73452;SDS011;61687;56.232;43.854;2023-05-07T08:28:26;4.55;;;2.90;;
73452;SDS011;61687;56.232;43.854;2023-05-07T08:30:52;5.05;;;3.38;;
73452;SDS011;61687;56.232;43.854;2023-05-07T08:33:18;4.35;;;3.38;;
73452;SDS011;61687;56.232;43.854;2023-05-07T08:35:44;7.85;;;3.67;;
73452;SDS011;61687;56.232;43.854;2023-05-07T08:38:12;7.87;;;3.27;;
73452;SDS011;61687;56.232;43.854;2023-05-07T08:40:39;4.57;;;2.92;;
73452;SDS011;61687;56.232;43.854;2023-05-07T08:43:12;6.65;;;3.78;;
73452;SDS011;61687;56.232;43.854;2023-05-07T08:45:39;6.88;;;3.85;;
73452;SDS011;61687;56.232;43.854;2023-05-07T08:48:08;9.88;;;3.60;;
73452;SDS011;61687;56.232;43.854;2023-05-07T08:50:42;6.27;;;3.00;;
73452;SDS011;61687;56.232;43.854;2023-05-07T08:53:09;9.88;;;3.03;;
73452;SDS011;61687;56.232;43.854;2023-05-07T08:55:35;6.70;;;3.55;;
73452;SDS011;61687;56.232;43.854;2023-05-07T08:58:01;6.18;;;3.45;;
73452;SDS011;61687;56.232;43.854;2023-05-07T09:00:29;5.70;;;3.22;;
73452;SDS011;61687;56.232;43.854;2023-05-07T09:02:57;4.37;;;2.83;;
73452;SDS011;61687;56.232;43.854;2023-05-07T09:05:23;4.50;;;3.10;;
73452;SDS011;61687;56.232;43.854;2023-05-07T09:07:50;6.00;;;3.38;;
73452;SDS011;61687;56.232;43.854;2023-05-07T09:10:16;5.28;;;2.65;;
73452;SDS011;61687;56.232;43.854;2023-05-07T09:12:47;4.63;;;3.45;;
73452;SDS011;61687;56.232;43.854;2023-05-07T09:15:14;6.73;;;3.50;;
73452;SDS011;61687;56.232;43.854;2023-05-07T09:17:42;7.03;;;2.97;;
73452;SDS011;61687;56.232;43.854;2023-05-07T09:20:09;6.45;;;3.70;;
73452;SDS011;61687;56.232;43.854;2023-05-07T09:22:36;7.05;;;2.60;;
73452;SDS011;61687;56.232;43.854;2023-05-07T09:25:06;5.25;;;2.65;;
73452;SDS011;61687;56.232;43.854;2023-05-07T09:27:35;9.10;;;4.60;;
73452;SDS011;61687;56.232;43.854;2023-05-07T09:30:08;6.78;;;2.60;;
73452;SDS011;61687;56.232;43.854;2023-05-07T09:32:36;4.28;;;3.05;;
73452;SDS011;61687;56.232;43.854;2023-05-07T09:35:16;4.18;;;2.58;;
73452;SDS011;61687;56.232;43.854;2023-05-07T09:37:45;4.80;;;2.70;;
73452;SDS011;61687;56.232;43.854;2023-05-07T09:40:20;4.27;;;2.93;;
73452;SDS011;61687;56.232;43.854;2023-05-07T09:42:47;6.63;;;3.10;;
73452;SDS011;61687;56.232;43.854;2023-05-07T09:45:27;6.75;;;2.97;;
73452;SDS011;61687;56.232;43.854;2023-05-07T09:47:57;6.90;;;2.90;;
73452;SDS011;61687;56.232;43.854;2023-05-07T09:50:29;5.25;;;2.67;;
73452;SDS011;61687;56.232;43.854;2023-05-07T09:53:00;5.07;;;3.20;;
73452;SDS011;61687;56.232;43.854;2023-05-07T09:55:26;7.03;;;2.60;;
73452;SDS011;61687;56.232;43.854;2023-05-07T09:57:53;6.53;;;3.33;;
73452;SDS011;61687;56.232;43.854;2023-05-07T10:00:21;5.32;;;2.92;;
73452;SDS011;61687;56.232;43.854;2023-05-07T10:02:50;5.78;;;3.47;;
73452;SDS011;61687;56.232;43.854;2023-05-07T10:05:23;5.87;;;3.13;;
73452;SDS011;61687;56.232;43.854;2023-05-07T10:07:53;5.00;;;2.90;;
73452;SDS011;61687;56.232;43.854;2023-05-07T10:10:21;5.53;;;3.72;;
73452;SDS011;61687;56.232;43.854;2023-05-07T10:12:49;4.20;;;2.90;;
73452;SDS011;61687;56.232;43.854;2023-05-07T10:15:24;8.00;;;3.50;;
73452;SDS011;61687;56.232;43.854;2023-05-07T10:17:54;4.80;;;2.70;;
73452;SDS011;61687;56.232;43.854;2023-05-07T10:20:21;6.63;;;3.13;;
73452;SDS011;61687;56.232;43.854;2023-05-07T10:22:48;7.22;;;3.08;;
73452;SDS011;61687;56.232;43.854;2023-05-07T10:25:28;6.80;;;3.00;;
73452;SDS011;61687;56.232;43.854;2023-05-07T10:28:01;5.35;;;3.60;;
73452;SDS011;61687;56.232;43.854;2023-05-07T10:33:22;6.10;;;3.67;;
73452;SDS011;61687;56.232;43.854;2023-05-07T10:35:52;5.90;;;3.92;;
73452;SDS011;61687;56.232;43.854;2023-05-07T10:38:24;7.22;;;3.42;;
73452;SDS011;61687;56.232;43.854;2023-05-07T10:40:51;9.57;;;4.20;;
73452;SDS011;61687;56.232;43.854;2023-05-07T10:43:17;7.53;;;4.57;;
73452;SDS011;61687;56.232;43.854;2023-05-07T10:49:09;6.50;;;4.00;;
73452;SDS011;61687;56.232;43.854;2023-05-07T10:51:44;10.57;;;3.88;;
73452;SDS011;61687;56.232;43.854;2023-05-07T10:54:24;4.72;;;3.55;;
73452;SDS011;61687;56.232;43.854;2023-05-07T11:00:01;5.47;;;4.22;;
73452;SDS011;61687;56.232;43.854;2023-05-07T11:05:41;7.00;;;3.53;;
73452;SDS011;61687;56.232;43.854;2023-05-07T11:08:17;5.95;;;4.68;;
73452;SDS011;61687;56.232;43.854;2023-05-07T11:10:56;7.03;;;4.40;;
73452;SDS011;61687;56.232;43.854;2023-05-07T11:13:52;6.18;;;4.10;;
73452;SDS011;61687;56.232;43.854;2023-05-07T11:16:28;6.75;;;3.95;;
73452;SDS011;61687;56.232;43.854;2023-05-07T11:19:06;11.85;;;3.97;;
73452;SDS011;61687;56.232;43.854;2023-05-07T11:21:38;10.93;;;4.45;;
73452;SDS011;61687;56.232;43.854;2023-05-07T11:24:28;5.33;;;4.37;;
73452;SDS011;61687;56.232;43.854;2023-05-07T11:27:06;5.93;;;4.55;;
73452;SDS011;61687;56.232;43.854;2023-05-07T11:29:32;7.45;;;4.43;;
73452;SDS011;61687;56.232;43.854;2023-05-07T11:32:12;5.78;;;4.68;;
73452;SDS011;61687;56.232;43.854;2023-05-07T11:34:44;8.93;;;3.80;;
73452;SDS011;61687;56.232;43.854;2023-05-07T11:37:16;6.87;;;2.90;;
73452;SDS011;61687;56.232;43.854;2023-05-07T11:39:51;12.65;;;3.20;;
73452;SDS011;61687;56.232;43.854;2023-05-07T11:42:30;9.65;;;3.47;;
73452;SDS011;61687;56.232;43.854;2023-05-07T11:44:58;9.18;;;3.42;;
73452;SDS011;61687;56.232;43.854;2023-05-07T11:47:24;5.78;;;3.47;;
73452;SDS011;61687;56.232;43.854;2023-05-07T11:49:53;8.10;;;3.53;;
73452;SDS011;61687;56.232;43.854;2023-05-07T11:52:21;15.57;;;3.70;;
73452;SDS011;61687;56.232;43.854;2023-05-07T11:54:48;8.48;;;3.72;;
73452;SDS011;61687;56.232;43.854;2023-05-07T11:57:18;7.30;;;3.33;;
73452;SDS011;61687;56.232;43.854;2023-05-07T11:59:45;7.00;;;4.20;;
73452;SDS011;61687;56.232;43.854;2023-05-07T12:02:14;8.20;;;4.17;;
73452;SDS011;61687;56.232;43.854;2023-05-07T12:04:40;5.70;;;3.22;;
73452;SDS011;61687;56.232;43.854;2023-05-07T12:07:16;9.80;;;3.95;;
73452;SDS011;61687;56.232;43.854;2023-05-07T12:09:44;5.78;;;3.90;;
73452;SDS011;61687;56.232;43.854;2023-05-07T12:12:11;10.10;;;4.60;;
73452;SDS011;61687;56.232;43.854;2023-05-07T12:14:40;6.77;;;3.03;;
73452;SDS011;61687;56.232;43.854;2023-05-07T12:17:07;6.93;;;3.45;;
73452;SDS011;61687;56.232;43.854;2023-05-07T12:19:37;7.10;;;3.47;;
73452;SDS011;61687;56.232;43.854;2023-05-07T12:22:05;6.13;;;3.60;;
73452;SDS011;61687;56.232;43.854;2023-05-07T12:24:48;9.65;;;3.63;;
73452;SDS011;61687;56.232;43.854;2023-05-07T12:27:25;7.13;;;3.53;;
73452;SDS011;61687;56.232;43.854;2023-05-07T12:29:51;6.05;;;3.53;;
73452;SDS011;61687;56.232;43.854;2023-05-07T12:32:18;6.60;;;3.78;;
73452;SDS011;61687;56.232;43.854;2023-05-07T12:34:47;10.02;;;3.67;;
73452;SDS011;61687;56.232;43.854;2023-05-07T12:37:16;5.50;;;3.78;;
73452;SDS011;61687;56.232;43.854;2023-05-07T12:39:48;6.23;;;3.90;;
73452;SDS011;61687;56.232;43.854;2023-05-07T12:42:15;7.53;;;4.32;;
73452;SDS011;61687;56.232;43.854;2023-05-07T12:44:43;5.65;;;4.43;;
73452;SDS011;61687;56.232;43.854;2023-05-07T12:47:11;6.97;;;5.07;;
73452;SDS011;61687;56.232;43.854;2023-05-07T12:49:38;7.10;;;5.47;;
73452;SDS011;61687;56.232;43.854;2023-05-07T12:52:05;7.27;;;3.40;;
73452;SDS011;61687;56.232;43.854;2023-05-07T12:54:33;6.50;;;3.47;;
73452;SDS011;61687;56.232;43.854;2023-05-07T12:57:07;4.97;;;3.72;;
73452;SDS011;61687;56.232;43.854;2023-05-07T12:59:36;5.70;;;3.30;;
73452;SDS011;61687;56.232;43.854;2023-05-07T13:02:02;5.80;;;4.03;;
73452;SDS011;61687;56.232;43.854;2023-05-07T13:04:29;4.83;;;3.13;;
73452;SDS011;61687;56.232;43.854;2023-05-07T13:06:55;6.95;;;3.38;;
73452;SDS011;61687;56.232;43.854;2023-05-07T13:09:21;5.82;;;4.07;;
73452;SDS011;61687;56.232;43.854;2023-05-07T13:11:47;6.47;;;3.50;;
73452;SDS011;61687;56.232;43.854;2023-05-07T13:14:13;6.43;;;3.88;;
73452;SDS011;61687;56.232;43.854;2023-05-07T13:16:40;8.23;;;3.30;;
73452;SDS011;61687;56.232;43.854;2023-05-07T13:19:07;5.43;;;3.72;;
73452;SDS011;61687;56.232;43.854;2023-05-07T13:21:33;9.00;;;4.35;;
73452;SDS011;61687;56.232;43.854;2023-05-07T13:23:59;7.35;;;3.50;;
73452;SDS011;61687;56.232;43.854;2023-05-07T13:26:25;6.82;;;3.63;;
73452;SDS011;61687;56.232;43.854;2023-05-07T13:28:55;7.10;;;3.90;;
73452;SDS011;61687;56.232;43.854;2023-05-07T13:31:21;6.45;;;3.10;;
73452;SDS011;61687;56.232;43.854;2023-05-07T13:33:47;10.80;;;4.03;;
73452;SDS011;61687;56.232;43.854;2023-05-07T13:36:13;6.47;;;4.28;;
73452;SDS011;61687;56.232;43.854;2023-05-07T13:38:39;9.40;;;5.43;;
73452;SDS011;61687;56.232;43.854;2023-05-07T13:41:05;8.10;;;5.13;;
73452;SDS011;61687;56.232;43.854;2023-05-07T13:43:31;6.72;;;5.22;;
73452;SDS011;61687;56.232;43.854;2023-05-07T13:45:59;7.72;;;3.50;;
73452;SDS011;61687;56.232;43.854;2023-05-07T13:48:26;6.28;;;4.35;;
73452;SDS011;61687;56.232;43.854;2023-05-07T13:50:52;8.23;;;4.15;;
73452;SDS011;61687;56.232;43.854;2023-05-07T13:53:18;16.43;;;3.90;;
73452;SDS011;61687;56.232;43.854;2023-05-07T13:55:44;6.30;;;3.47;;
73452;SDS011;61687;56.232;43.854;2023-05-07T13:58:11;9.52;;;5.47;;
73452;SDS011;61687;56.232;43.854;2023-05-07T14:00:36;6.82;;;3.92;;
73452;SDS011;61687;56.232;43.854;2023-05-07T14:03:04;8.90;;;5.00;;
73452;SDS011;61687;56.232;43.854;2023-05-07T14:05:30;6.07;;;3.70;;
73452;SDS011;61687;56.232;43.854;2023-05-07T14:07:57;5.00;;;3.03;;
73452;SDS011;61687;56.232;43.854;2023-05-07T14:10:24;7.07;;;3.85;;
73452;SDS011;61687;56.232;43.854;2023-05-07T14:12:51;6.10;;;3.08;;
73452;SDS011;61687;56.232;43.854;2023-05-07T14:15:18;8.32;;;3.08;;
73452;SDS011;61687;56.232;43.854;2023-05-07T14:17:44;4.63;;;2.97;;
73452;SDS011;61687;56.232;43.854;2023-05-07T14:20:11;9.43;;;4.45;;
73452;SDS011;61687;56.232;43.854;2023-05-07T14:22:38;7.03;;;3.67;;
73452;SDS011;61687;56.232;43.854;2023-05-07T14:25:04;10.50;;;4.47;;
73452;SDS011;61687;56.232;43.854;2023-05-07T14:27:33;10.60;;;4.40;;
73452;SDS011;61687;56.232;43.854;2023-05-07T14:30:00;10.50;;;4.00;;
73452;SDS011;61687;56.232;43.854;2023-05-07T14:32:26;7.35;;;4.03;;
73452;SDS011;61687;56.232;43.854;2023-05-07T14:34:52;10.75;;;4.38;;
73452;SDS011;61687;56.232;43.854;2023-05-07T14:37:18;9.60;;;4.45;;
73452;SDS011;61687;56.232;43.854;2023-05-07T14:39:45;6.65;;;3.15;;
73452;SDS011;61687;56.232;43.854;2023-05-07T14:42:11;6.23;;;3.53;;
73452;SDS011;61687;56.232;43.854;2023-05-07T14:44:38;12.05;;;4.25;;
73452;SDS011;61687;56.232;43.854;2023-05-07T14:47:07;7.70;;;4.32;;
73452;SDS011;61687;56.232;43.854;2023-05-07T14:49:33;9.30;;;4.18;;
73452;SDS011;61687;56.232;43.854;2023-05-07T14:52:00;8.10;;;3.60;;